Time;durP1;ratioP1;P1;durP2;ratioP2;P2;SDS_P1;SDS_P2;PMS_P1;PMS_P2;Temp;Humidity;BMP_temperature;BMP_pressure;BME280_temperature;BME280_humidity;BME280_pressure;Samples;Min_cycle;Max_cycle;Signal;HPM_P1;HPM_P2
2022/03/02 00:00:21;;;;;;;19.35;10.45;;;;;;;2.89;32.78;100780.81;7765135;32;37900;-70
2022/03/02 00:04:37;;;;;;;19.23;10.95;;;;;;;2.77;33.21;100780.53;7739235;32;39201;-70
2022/03/02 00:08:53;;;;;;;19.23;10.25;;;;;;;2.85;34.33;100774.19;7738784;32;39887;-70
2022/03/02 00:13:10;;;;;;;16.80;8.48;;;;;;;3.09;33.85;100774.75;7737916;32;38803;-70
2022/03/02 00:17:26;;;;;;;23.17;10.70;;;;;;;3.30;33.81;100766.56;7737998;32;36948;-70
2022/03/02 00:21:42;;;;;;;18.95;10.10;;;;;;;3.18;34.08;100760.06;7737931;32;39438;-69
2022/03/02 00:25:58;;;;;;;19.10;10.35;;;;;;;2.91;34.94;100773.38;7751598;32;39864;-70
2022/03/02 00:30:14;;;;;;;19.77;8.65;;;;;;;2.78;34.97;100770.62;7764841;32;37771;-69
2022/03/02 00:34:30;;;;;;;18.20;8.55;;;;;;;3.01;34.60;100768.47;7739429;32;37034;-69
2022/03/02 00:38:46;;;;;;;16.25;8.75;;;;;;;2.75;34.57;100760.22;7737744;32;39288;-69
2022/03/02 00:43:03;;;;;;;18.12;9.05;;;;;;;2.94;34.52;100751.44;7737535;32;39685;-69
2022/03/02 00:47:19;;;;;;;18.85;10.65;;;;;;;3.05;34.93;100743.81;7737479;32;37893;-69
2022/03/02 00:51:36;;;;;;;18.00;10.52;;;;;;;2.75;37.30;100746.75;7737235;32;37821;-70
2022/03/02 00:55:52;;;;;;;23.55;10.90;;;;;;;2.47;38.31;100738.66;7736461;32;39859;-70
2022/03/02 01:00:09;;;;;;;17.55;10.23;;;;;;;2.43;38.61;100746.31;7737154;32;40793;-70
2022/03/02 01:04:25;;;;;;;21.35;10.63;;;;;;;2.49;38.90;100747.41;7761634;32;37657;-69
2022/03/02 01:08:41;;;;;;;18.67;10.05;;;;;;;2.53;38.60;100732.53;7763965;32;36803;-70
2022/03/02 01:12:57;;;;;;;15.90;9.52;;;;;;;2.60;38.30;100728.87;7745890;32;39828;-70
2022/03/02 01:17:13;;;;;;;19.05;10.38;;;;;;;2.45;38.16;100725.44;7736905;32;40562;-69
2022/03/02 01:21:29;;;;;;;25.73;9.80;;;;;;;2.29;38.54;100723.00;7736716;32;37824;-69
2022/03/02 01:25:45;;;;;;;19.80;10.02;;;;;;;2.56;37.58;100722.19;7736611;32;37076;-70
2022/03/02 01:30:03;;;;;;;17.10;9.80;;;;;;;2.50;37.58;100708.69;7736546;32;39288;-70
2022/03/02 01:34:19;;;;;;;20.80;10.60;;;;;;;2.37;38.03;100706.72;7760924;32;39915;-70
2022/03/02 01:38:35;;;;;;;23.98;10.35;;;;;;;2.47;37.72;100693.75;7763193;32;37821;-70
2022/03/02 01:42:51;;;;;;;24.75;9.70;;;;;;;2.38;37.84;100703.84;7763188;32;37934;-69
2022/03/02 01:47:07;;;;;;;17.90;8.85;;;;;;;2.36;37.79;100699.66;7763278;32;40020;-70
2022/03/02 01:51:24;;;;;;;17.85;9.50;;;;;;;2.28;37.99;100699.81;7762870;32;40828;-69
2022/03/02 01:55:40;;;;;;;18.85;9.20;;;;;;;2.01;38.43;100702.28;7762890;32;38130;-69
2022/03/02 01:59:57;;;;;;;16.45;8.88;;;;;;;2.00;38.39;100692.53;7762865;32;37013;-69
2022/03/02 02:04:13;;;;;;;16.50;8.93;;;;;;;1.94;38.29;100690.66;7724857;32;38965;-69
2022/03/02 02:08:29;;;;;;;18.45;9.52;;;;;;;1.74;38.08;100685.06;7739486;32;40889;-69
2022/03/02 02:12:45;;;;;;;14.32;8.27;;;;;;;1.94;37.73;100691.47;7739390;32;38643;-69
2022/03/02 02:17:01;;;;;;;15.23;8.13;;;;;;;1.62;37.80;100690.09;7740224;32;37117;-70
2022/03/02 02:21:20;;;;;;;13.62;7.62;;;;;;;1.72;36.18;100685.25;7739432;32;40002;-70
2022/03/02 02:25:36;;;;;;;15.38;7.85;;;;;;;1.78;35.77;100691.75;7739709;32;40825;-70
2022/03/02 02:29:53;;;;;;;17.58;8.63;;;;;;;1.65;36.54;100681.66;7739271;32;37975;-68
2022/03/02 02:34:09;;;;;;;14.23;8.13;;;;;;;1.47;37.43;100682.13;7763121;32;36627;-69
2022/03/02 02:38:25;;;;;;;16.00;8.40;;;;;;;1.43;37.84;100694.25;7766157;32;39080;-69
2022/03/02 02:42:44;;;;;;;15.65;8.50;;;;;;;1.75;36.76;100687.56;7765950;32;40848;-70
2022/03/02 02:47:01;;;;;;;15.15;8.05;;;;;;;1.25;36.21;100675.88;7765820;32;37663;-69
2022/03/02 02:51:18;;;;;;;13.10;7.70;;;;;;;1.57;36.20;100685.31;7738974;32;37717;-69
2022/03/02 02:55:34;;;;;;;16.98;8.20;;;;;;;1.49;36.10;100683.56;7739016;32;39911;-69
2022/03/02 02:59:50;;;;;;;16.73;8.10;;;;;;;1.57;36.38;100681.78;7738899;32;40010;-69
2022/03/02 03:04:06;;;;;;;13.20;8.63;;;;;;;1.54;36.59;100671.44;7738385;32;39105;-69
2022/03/02 03:08:23;;;;;;;13.77;8.73;;;;;;;1.51;36.11;100675.31;7738841;32;36818;-69
2022/03/02 03:12:39;;;;;;;18.25;8.70;;;;;;;1.41;36.71;100681.00;7738786;32;39151;-68
2022/03/02 03:16:55;;;;;;;17.30;9.25;;;;;;;1.01;38.33;100691.28;7738166;32;39977;-69
2022/03/02 03:21:12;;;;;;;12.43;8.20;;;;;;;0.84;40.15;100695.19;7738509;32;37963;-69
2022/03/02 03:25:29;;;;;;;16.27;8.60;;;;;;;1.03;39.95;100686.53;7738464;32;37748;-69
2022/03/02 03:29:45;;;;;;;15.77;8.73;;;;;;;1.04;40.19;100685.53;7738559;32;39357;-69
2022/03/02 03:34:01;;;;;;;16.48;8.75;;;;;;;0.99;39.56;100687.94;7738202;32;40837;-69
2022/03/02 03:38:17;;;;;;;14.20;8.07;;;;;;;0.97;39.84;100689.13;7738461;32;38720;-69
2022/03/02 03:42:33;;;;;;;17.37;8.85;;;;;;;0.83;40.01;100690.81;7738147;32;37900;-70
2022/03/02 03:46:50;;;;;;;15.65;8.45;;;;;;;0.85;39.92;100686.94;7738114;32;40140;-69
2022/03/02 03:51:06;;;;;;;17.62;9.00;;;;;;;0.94;39.94;100690.34;7738251;32;40750;-69
2022/03/02 03:55:22;;;;;;;15.82;8.85;;;;;;;0.99;39.77;100687.13;7738203;32;38720;-69
2022/03/02 03:59:38;;;;;;;18.52;9.27;;;;;;;0.73;40.88;100680.38;7738233;32;37268;-69
2022/03/02 04:03:55;;;;;;;16.52;8.45;;;;;;;0.78;41.07;100682.50;7761802;32;39773;-69
2022/03/02 04:08:11;;;;;;;13.73;8.60;;;;;;;0.94;40.62;100682.31;7765042;32;39670;-70
2022/03/02 04:12:27;;;;;;;15.25;8.32;;;;;;;0.82;40.03;100679.25;7764988;32;37817;-69
2022/03/02 04:16:43;;;;;;;16.23;8.93;;;;;;;0.71;39.96;100675.19;7764918;32;36974;-69
2022/03/02 04:21:00;;;;;;;16.62;7.80;;;;;;;0.53;40.13;100672.84;7764929;32;39419;-69
2022/03/02 04:25:16;;;;;;;15.20;8.27;;;;;;;0.84;39.31;100671.00;7764705;32;40827;-69
2022/03/02 04:29:33;;;;;;;17.95;9.60;;;;;;;0.56;40.20;100660.94;7763565;32;37860;-69
2022/03/02 04:33:49;;;;;;;13.48;8.55;;;;;;;0.63;40.53;100661.84;7763498;32;37169;-69
2022/03/02 04:38:06;;;;;;;16.67;8.63;;;;;;;0.61;40.46;100658.53;7764697;32;39475;-69
2022/03/02 04:42:22;;;;;;;15.73;8.38;;;;;;;0.49;40.17;100651.97;7764485;32;39874;-69
2022/03/02 04:46:38;;;;;;;15.50;8.07;;;;;;;0.75;39.35;100649.63;7764460;32;38776;-70
2022/03/02 04:50:54;;;;;;;14.68;8.48;;;;;;;0.74;39.47;100636.41;7764371;32;37785;-69
2022/03/02 04:55:11;;;;;;;17.02;8.88;;;;;;;0.71;39.42;100634.94;7764270;32;39324;-69
2022/03/02 04:59:27;;;;;;;16.50;8.63;;;;;;;0.30;40.24;100646.13;7764312;32;39646;-70
2022/03/02 05:03:43;;;;;;;16.02;8.75;;;;;;;0.45;42.08;100647.97;7739592;32;38412;-69
2022/03/02 05:07:59;;;;;;;12.65;7.32;;;;;;;0.67;40.04;100639.03;7737065;32;37706;-69
2022/03/02 05:12:15;;;;;;;15.00;8.27;;;;;;;0.80;39.28;100637.53;7737043;32;39452;-69
2022/03/02 05:16:31;;;;;;;13.80;7.43;;;;;;;0.45;39.67;100638.09;7759111;32;40028;-69
2022/03/02 05:20:48;;;;;;;14.40;7.32;;;;;;;0.36;39.59;100637.34;7763726;32;37873;-69
2022/03/02 05:25:06;;;;;;;17.62;8.52;;;;;;;0.14;39.60;100646.28;7763783;32;37065;-69
2022/03/02 05:29:24;;;;;;;16.35;7.75;;;;;;;0.18;39.26;100651.09;7763886;32;39420;-69
2022/03/02 05:33:41;;;;;;;15.20;7.75;;;;;;;0.53;38.79;100637.16;7739028;32;40737;-69
2022/03/02 05:37:57;;;;;;;13.75;8.55;;;;;;;0.50;39.15;100642.88;7736498;32;38730;-69
2022/03/02 05:42:13;;;;;;;13.98;8.02;;;;;;;0.24;39.92;100633.44;7739448;32;37823;-69
2022/03/02 05:46:29;;;;;;;14.93;8.23;;;;;;;0.21;40.74;100641.88;7739874;32;39432;-69
2022/03/02 05:50:46;;;;;;;13.95;8.55;;;;;;;-0.03;41.90;100649.12;7739850;32;40143;-69
2022/03/02 05:55:02;;;;;;;14.45;8.32;;;;;;;0.17;43.86;100646.75;7739570;32;38640;-69
2022/03/02 05:59:19;;;;;;;21.58;9.20;;;;;;;0.23;44.29;100649.72;7739745;32;37184;-69
2022/03/02 06:03:35;;;;;;;16.95;9.40;;;;;;;0.40;43.73;100639.63;7763552;32;39370;-69
2022/03/02 06:07:51;;;;;;;11.98;8.13;;;;;;;0.28;41.76;100637.44;7766583;32;41245;-69
2022/03/02 06:12:09;;;;;;;16.02;8.30;;;;;;;0.19;41.45;100643.91;7752671;32;37853;-70
2022/03/02 06:16:25;;;;;;;17.15;8.68;;;;;;;0.57;40.37;100633.09;7766425;32;36836;-69
2022/03/02 06:20:42;;;;;;;13.80;8.18;;;;;;;0.28;40.62;100637.44;7766501;32;39312;-69
2022/03/02 06:24:58;;;;;;;12.25;7.68;;;;;;;0.28;41.35;100642.78;7766244;32;40867;-69
2022/03/02 06:29:16;;;;;;;15.02;7.47;;;;;;;0.48;40.72;100642.25;7766351;32;37599;-69
2022/03/02 06:33:32;;;;;;;15.43;9.23;;;;;;;0.60;40.45;100635.38;7741800;32;37719;-69
2022/03/02 06:37:48;;;;;;;16.65;9.05;;;;;;;0.45;42.91;100635.41;7739303;32;39180;-70
2022/03/02 06:42:16;;;;;;;13.40;8.55;;;;;;;0.77;43.60;100630.66;7739165;32;40399;-69
2022/03/02 06:46:55;;;;;;;19.75;9.60;;;;;;;0.92;43.58;100628.78;7739029;32;38427;-68
2022/03/02 06:51:14;;;;;;;21.27;11.90;;;;;;;1.12;43.71;100629.03;7746939;32;37930;-69
2022/03/02 06:55:30;;;;;;;22.02;12.05;;;;;;;1.26;44.13;100626.47;7764674;32;39332;-68
2022/03/02 06:59:52;;;;;;;19.37;10.75;;;;;;;1.33;43.63;100624.72;7750904;32;41251;-67
2022/03/02 07:04:11;;;;;;;21.62;11.98;;;;;;;1.55;42.53;100619.34;7739021;32;37903;-69
2022/03/02 07:08:28;;;;;;;19.70;10.30;;;;;;;1.29;42.99;100628.78;7725588;32;37931;-69
2022/03/02 07:12:45;;;;;;;15.95;9.65;;;;;;;1.26;42.61;100613.03;7738749;32;39256;-69
2022/03/02 07:17:03;;;;;;;18.85;8.32;;;;;;;1.74;41.11;100613.28;7747579;32;40501;-69
2022/03/02 07:21:22;;;;;;;18.02;8.25;;;;;;;1.93;41.19;100608.28;7738697;32;37572;-69
2022/03/02 07:25:41;;;;;;;20.50;9.35;;;;;;;2.35;39.32;100606.53;7725355;32;37129;-70
2022/03/02 07:29:59;;;;;;;22.55;8.80;;;;;;;2.53;38.26;100608.69;7738764;32;39474;-70
2022/03/02 07:34:15;;;;;;;19.77;8.52;;;;;;;2.89;37.22;100602.22;7724990;32;39733;-69
2022/03/02 07:38:32;;;;;;;15.40;8.15;;;;;;;3.23;35.56;100604.00;7738489;32;38640;-69
2022/03/02 07:42:49;;;;;;;16.58;7.70;;;;;;;3.21;35.21;100598.00;7738595;32;37077;-69
2022/03/02 07:47:05;;;;;;;15.95;7.93;;;;;;;3.31;34.09;100600.28;7738492;32;39223;-69
2022/03/02 07:51:22;;;;;;;14.07;8.38;;;;;;;3.15;35.92;100593.41;7757881;32;40399;-69
2022/03/02 07:55:39;;;;;;;30.85;8.38;;;;;;;2.73;35.76;100593.47;7751214;32;38583;-69
2022/03/02 07:59:57;;;;;;;16.85;8.23;;;;;;;3.18;34.99;100574.97;7764936;32;37091;-69
2022/03/02 08:04:14;;;;;;;16.05;8.55;;;;;;;3.54;34.57;100572.94;7751358;32;40041;-70
2022/03/02 08:08:30;;;;;;;18.48;9.40;;;;;;;3.92;34.16;100567.75;7765044;32;39947;-69
2022/03/02 08:12:46;;;;;;;25.70;12.23;;;;;;;4.09;34.33;100549.28;7764924;32;37912;-69
2022/03/02 08:17:03;;;;;;;26.02;12.65;;;;;;;3.75;33.82;100561.94;7751075;32;37159;-69
2022/03/02 08:21:20;;;;;;;26.42;12.77;;;;;;;3.80;33.88;100544.34;7754657;32;39193;-71
2022/03/02 08:25:37;;;;;;;26.35;12.20;;;;;;;4.46;33.30;100557.69;7741545;32;40018;-70
2022/03/02 08:29:56;;;;;;;26.25;12.00;;;;;;;4.77;32.57;100547.19;7764766;32;38552;-71
2022/03/02 08:34:13;;;;;;;22.13;11.02;;;;;;;4.90;32.73;100544.41;7764707;32;37313;-71
2022/03/02 08:38:29;;;;;;;20.17;11.32;;;;;;;4.93;32.99;100535.03;7764841;32;40083;-70
2022/03/02 08:42:47;;;;;;;24.12;12.13;;;;;;;5.04;33.20;100535.19;7764645;32;40211;-70
2022/03/02 08:47:03;;;;;;;23.77;12.10;;;;;;;5.10;33.21;100528.06;7764488;32;37908;-71
2022/03/02 08:51:24;;;;;;;21.12;11.57;;;;;;;5.38;34.52;100524.13;7764346;32;37939;-76
2022/03/02 08:55:41;;;;;;;26.12;11.65;;;;;;;5.46;34.73;100519.28;7764555;32;39760;-69
2022/03/02 08:59:58;;;;;;;23.48;12.13;;;;;;;5.46;32.72;100522.00;7760364;32;40290;-69
2022/03/02 09:04:16;;;;;;;19.40;9.77;;;;;;;5.84;31.56;100506.69;7749177;32;38111;-69
2022/03/02 09:08:33;;;;;;;15.48;8.73;;;;;;;6.03;30.01;100493.22;7764119;32;37094;-70
2022/03/02 09:12:52;;;;;;;16.33;8.25;;;;;;;6.06;29.47;100484.66;7758873;32;39988;-69
2022/03/02 09:17:08;;;;;;;28.30;9.35;;;;;;;6.14;28.90;100484.34;7754741;32;39982;-69
2022/03/02 09:21:25;;;;;;;14.70;7.47;;;;;;;6.26;29.78;100481.72;7748888;32;37673;-69
2022/03/02 09:25:42;;;;;;;12.52;5.97;;;;;;;6.52;27.39;100480.56;7734622;32;37878;-69
2022/03/02 09:30:00;;;;;;;12.13;6.00;;;;;;;6.55;25.50;100485.53;7722370;32;39432;-69
2022/03/02 09:34:21;;;;;;;13.05;6.85;;;;;;;6.86;25.87;100478.22;7736059;32;39986;-69
2022/03/02 09:38:39;;;;;;;14.15;6.43;;;;;;;6.73;25.16;100481.97;7735455;32;38591;-69
2022/03/02 09:43:07;;;;;;;13.95;6.50;;;;;;;7.21;26.07;100472.91;7746789;32;37155;-69
2022/03/02 09:47:24;;;;;;;11.80;6.07;;;;;;;6.35;26.59;100492.03;7761120;32;39394;-70
2022/03/02 09:51:42;;;;;;;15.65;6.18;;;;;;;7.20;25.48;100471.25;7762168;32;40735;-70
2022/03/02 09:56:02;;;;;;;12.18;6.22;;;;;;;6.80;25.47;100476.47;7761665;32;37863;-69
2022/03/02 10:00:20;;;;;;;11.32;5.95;;;;;;;7.18;25.11;100462.53;7760706;32;38191;-70
2022/03/02 10:04:37;;;;;;;10.35;5.32;;;;;;;8.04;23.48;100449.31;7761140;32;38890;-69
2022/03/02 10:08:54;;;;;;;11.07;5.53;;;;;;;8.07;23.18;100445.28;7762138;32;39904;-69
2022/03/02 10:13:12;;;;;;;10.98;6.05;;;;;;;8.24;22.87;100443.50;7762171;32;37947;-69
2022/03/02 10:17:34;;;;;;;12.90;5.87;;;;;;;7.66;24.00;100444.41;7752206;32;37810;-69
2022/03/02 10:22:08;;;;;;;17.25;6.37;;;;;;;8.75;22.84;100435.53;7735048;32;39387;-69
2022/03/02 10:26:34;;;;;;;13.60;5.62;;;;;;;8.28;22.82;100433.78;7735372;32;40968;-70
2022/03/02 10:31:07;;;;;;;13.05;5.68;;;;;;;8.85;23.35;100429.47;7738898;32;38025;-69
2022/03/02 10:35:25;;;;;;;14.75;6.35;;;;;;;8.42;23.27;100428.09;7738777;32;37774;-70
2022/03/02 10:40:07;;;;;;;12.50;6.37;;;;;;;8.83;23.72;100423.47;7738897;32;39758;-71
2022/03/02 10:44:52;;;;;;;14.15;6.80;;;;;;;8.87;21.92;100419.16;7738670;32;39711;-69
2022/03/02 10:49:18;;;;;;;19.33;7.68;;;;;;;8.87;21.91;100411.00;7726480;32;38642;-70
2022/03/02 10:53:38;;;;;;;14.25;6.70;;;;;;;9.42;21.48;100397.72;7738716;32;36913;-70
2022/03/02 10:57:55;;;;;;;11.63;6.05;;;;;;;9.11;20.75;100405.44;7738275;32;39920;-70
2022/03/02 11:02:11;;;;;;;23.00;6.60;;;;;;;9.82;19.95;100385.78;7762967;32;40778;-70
2022/03/02 11:06:29;;;;;;;13.65;6.00;;;;;;;10.17;20.76;100379.13;7765060;32;38190;-70
2022/03/02 11:10:45;;;;;;;12.60;6.37;;;;;;;10.60;18.97;100370.06;7751508;32;37535;-70
2022/03/02 11:15:05;;;;;;;11.05;6.12;;;;;;;10.34;18.81;100358.09;7765186;32;39313;-70
2022/03/02 11:19:26;;;;;;;11.43;5.90;;;;;;;10.45;18.77;100365.31;7763400;32;39604;-70
2022/03/02 11:23:45;;;;;;;11.77;7.00;;;;;;;10.40;19.79;100362.53;7765477;32;37850;-70
2022/03/02 11:28:06;;;;;;;14.13;6.70;;;;;;;10.32;19.48;100346.63;7765035;32;37208;-70
2022/03/02 11:32:25;;;;;;;13.95;6.32;;;;;;;9.81;19.29;100346.81;7761539;32;39260;-70
2022/03/02 11:36:45;;;;;;;12.48;6.55;;;;;;;10.67;19.11;100339.88;7724048;32;39989;-70
2022/03/02 11:41:02;;;;;;;13.77;6.55;;;;;;;10.20;19.98;100337.75;7737675;32;37644;-70
2022/03/02 11:45:18;;;;;;;12.65;6.65;;;;;;;10.57;19.69;100331.59;7746571;32;36982;-71
2022/03/02 11:49:53;;;;;;;16.27;7.37;;;;;;;11.19;19.52;100311.94;7764444;32;39183;-70
2022/03/02 11:54:10;;;;;;;12.82;6.93;;;;;;;10.48;20.19;100312.97;7764051;32;40004;-71
2022/03/02 11:58:27;;;;;;;12.75;6.70;;;;;;;11.06;19.76;100301.47;7764395;32;38628;-71
2022/03/02 12:02:45;;;;;;;12.05;5.93;;;;;;;10.51;19.68;100307.03;7764641;32;37092;-71
2022/03/02 12:07:04;;;;;;;15.23;7.28;;;;;;;10.82;19.46;100288.19;7764590;32;38486;-71
2022/03/02 12:11:38;;;;;;;14.10;7.45;;;;;;;10.14;20.66;100287.81;7764401;32;40934;-71
2022/03/02 12:15:55;;;;;;;16.12;7.12;;;;;;;11.11;19.19;100276.94;7764664;32;38230;-72
2022/03/02 12:20:17;;;;;;;17.98;7.47;;;;;;;11.30;19.62;100281.94;7737511;32;37846;-72
2022/03/02 12:24:34;;;;;;;19.35;7.57;;;;;;;11.30;18.63;100273.75;7737627;32;39342;-71
2022/03/02 12:28:57;;;;;;;15.40;6.97;;;;;;;10.67;20.89;100277.16;7737178;32;39956;-71
2022/03/02 12:33:16;;;;;;;14.32;6.87;;;;;;;10.77;20.41;100265.53;7737155;32;38019;-71
2022/03/02 12:37:33;;;;;;;12.98;6.97;;;;;;;11.47;19.29;100268.94;7746114;32;37116;-71
2022/03/02 12:41:49;;;;;;;14.23;7.47;;;;;;;11.53;19.45;100251.47;7763863;32;39386;-71
2022/03/02 12:46:05;;;;;;;15.65;7.55;;;;;;;10.60;20.38;100252.03;7763845;32;39941;-71
2022/03/02 12:50:22;;;;;;;11.82;6.40;;;;;;;11.17;20.35;100243.13;7762691;32;38042;-71
2022/03/02 12:54:41;;;;;;;14.23;6.45;;;;;;;10.29;20.59;100247.09;7763956;32;37828;-72
2022/03/02 12:58:57;;;;;;;15.98;6.47;;;;;;;11.12;20.63;100229.44;7763687;32;40025;-75
2022/03/02 13:03:22;;;;;;;11.50;6.43;;;;;;;11.47;20.01;100208.88;7751183;32;39967;-71
2022/03/02 13:07:45;;;;;;;12.57;6.43;;;;;;;10.39;20.10;100205.53;7736446;32;38753;-71
2022/03/02 13:12:26;;;;;;;13.43;6.68;;;;;;;11.26;19.59;100197.88;7723202;32;37619;-75
2022/03/02 13:16:42;;;;;;;11.55;6.03;;;;;;;11.12;23.09;100196.69;7736650;32;39985;-71
2022/03/02 13:21:01;;;;;;;12.73;6.15;;;;;;;11.16;20.86;100188.81;7736532;32;40234;-73
2022/03/02 13:25:17;;;;;;;12.93;6.30;;;;;;;10.73;20.82;100180.69;7735849;32;38777;-73
2022/03/02 13:29:53;;;;;;;14.43;7.15;;;;;;;10.73;20.41;100197.06;7757837;32;36826;-71
2022/03/02 13:34:09;;;;;;;13.02;6.72;;;;;;;11.41;20.62;100188.09;7745499;32;39331;-72
2022/03/02 13:39:04;;;;;;;13.77;6.80;;;;;;;11.93;20.34;100170.78;7737438;32;40496;-73
2022/03/02 13:43:20;;;;;;;12.93;7.15;;;;;;;11.37;20.50;100163.25;7747189;32;38100;-71
2022/03/02 13:47:36;;;;;;;13.60;6.68;;;;;;;10.90;21.82;100155.97;7976589;26;37792;-74
2022/03/02 13:51:52;;;;;;;10.88;5.75;;;;;;;11.06;21.09;100154.94;7684396;32;38908;-74
2022/03/02 13:56:32;;;;;;;11.38;6.28;;;;;;;11.76;20.42;100153.78;7708309;32;39885;-74
2022/03/02 14:00:48;;;;;;;12.55;6.20;;;;;;;10.78;20.34;100153.44;7696519;32;38012;-73
2022/03/02 14:05:06;;;;;;;11.43;5.97;;;;;;;11.42;20.26;100157.00;7711586;32;37032;-75
2022/03/02 14:09:22;;;;;;;11.43;6.28;;;;;;;10.87;20.63;100145.59;7709638;32;38049;-74
2022/03/02 14:13:38;;;;;;;12.88;6.18;;;;;;;11.57;19.55;100143.38;7711764;32;39931;-74
2022/03/02 14:17:54;;;;;;;11.73;6.47;;;;;;;11.91;19.31;100145.63;7711120;32;37996;-76
2022/03/02 14:22:17;;;;;;;13.13;6.10;;;;;;;11.52;20.69;100145.25;7698670;32;37613;-74
2022/03/02 14:26:34;;;;;;;12.57;5.97;;;;;;;11.88;20.95;100140.69;7686080;32;39364;-74
2022/03/02 14:30:54;;;;;;;10.43;5.10;;;;;;;12.45;20.03;100129.75;7685117;32;39687;-74
2022/03/02 14:35:19;;;;;;;11.00;5.70;;;;;;;12.40;20.14;100139.63;7685631;32;38696;-75
2022/03/02 14:39:52;;;;;;;11.68;6.22;;;;;;;13.38;18.76;100144.00;7684898;32;37820;-75
2022/03/02 14:44:16;;;;;;;10.48;5.90;;;;;;;13.21;18.83;100130.62;7684534;32;39066;-75
2022/03/02 14:48:33;;;;;;;11.95;6.25;;;;;;;12.52;19.16;100138.50;7683888;32;40767;-74
2022/03/02 14:52:52;;;;;;;13.35;6.62;;;;;;;12.87;20.30;100139.53;7685631;32;38655;-75
2022/03/02 14:57:08;;;;;;;11.85;6.30;;;;;;;13.27;19.94;100133.06;7685817;32;37013;-75
2022/03/02 15:01:29;;;;;;;13.80;6.32;;;;;;;13.47;19.48;100128.59;7685757;32;39741;-75
2022/03/02 15:06:11;;;;;;;12.07;6.10;;;;;;;13.33;19.15;100123.75;7685880;32;39932;-76
2022/03/02 15:10:27;;;;;;;11.65;5.75;;;;;;;12.70;23.50;100123.44;7690973;32;36432;-73
2022/03/02 15:19:31;;;;;;;15.70;6.65;;;;;;;12.96;19.61;100113.22;7695408;32;39099;-73
2022/03/02 15:23:47;;;;;;;10.45;6.12;;;;;;;12.58;19.88;100112.78;7685424;32;40027;-73
2022/03/02 15:28:09;;;;;;;15.15;6.25;;;;;;;14.64;17.65;100098.59;7689095;32;37829;-74
2022/03/02 15:32:34;;;;;;;14.43;6.43;;;;;;;17.08;15.12;100087.87;7672007;32;37780;-73
2022/03/02 15:37:05;;;;;;;13.35;6.22;;;;;;;17.17;14.87;100093.47;7671855;32;39646;-73
2022/03/02 15:41:27;;;;;;;12.52;6.22;;;;;;;16.53;15.64;100092.22;7684755;32;40677;-72
2022/03/02 15:45:44;;;;;;;26.45;7.28;;;;;;;14.27;17.68;100098.13;7684581;32;38101;-72
2022/03/02 15:50:00;;;;;;;14.15;7.28;;;;;;;13.61;18.64;100106.91;7684723;32;37119;-72
2022/03/02 15:54:16;;;;;;;16.55;6.47;;;;;;;12.89;19.81;100107.22;7684550;32;38890;-73
2022/03/02 15:58:43;;;;;;;12.82;7.15;;;;;;;12.52;20.12;100108.41;7685533;32;40525;-72
2022/03/02 16:03:00;;;;;;;13.30;7.03;;;;;;;11.19;20.97;100107.25;7684812;32;38120;-72
2022/03/02 16:07:19;;;;;;;14.63;7.18;;;;;;;11.46;21.02;100111.69;7711185;32;37647;-73
2022/03/02 16:11:41;;;;;;;14.45;7.90;;;;;;;11.79;19.98;100102.16;7711035;32;38104;-72
2022/03/02 16:16:01;;;;;;;15.45;7.70;;;;;;;11.18;20.41;100104.78;7697950;32;40038;-72
2022/03/02 16:20:22;;;;;;;13.52;7.53;;;;;;;11.00;20.42;100101.44;7711014;32;37949;-72
2022/03/02 16:24:42;;;;;;;14.95;8.60;;;;;;;10.74;20.75;100105.97;7710819;32;37160;-73
2022/03/02 16:28:58;;;;;;;14.02;7.78;;;;;;;9.45;22.20;100119.66;7696122;32;39382;-74
2022/03/02 16:33:14;;;;;;;16.80;9.20;;;;;;;9.67;22.07;100111.44;7684014;32;39697;-73
2022/03/02 16:37:31;;;;;;;19.35;9.63;;;;;;;9.71;21.95;100110.66;7670388;32;38413;-73
2022/03/02 16:41:52;;;;;;;16.55;9.10;;;;;;;9.40;22.20;100107.63;7683977;32;37878;-74
2022/03/02 16:46:11;;;;;;;18.12;9.35;;;;;;;9.31;22.41;100114.63;7683811;32;39390;-74
2022/03/02 16:50:28;;;;;;;20.67;10.68;;;;;;;9.07;22.58;100121.41;7678288;32;179153;-73
2022/03/02 16:54:45;;;;;;;20.48;11.20;;;;;;;9.34;22.33;100124.97;7683460;32;38694;-73
2022/03/02 16:59:02;;;;;;;24.05;10.68;;;;;;;8.90;23.14;100129.59;7698550;32;36987;-74
2022/03/02 17:03:19;;;;;;;19.52;10.60;;;;;;;8.95;23.06;100121.53;7709952;32;39979;-74
2022/03/02 17:07:36;;;;;;;17.05;9.63;;;;;;;8.90;23.67;100124.19;7709809;32;39952;-74
2022/03/02 17:11:53;;;;;;;17.50;9.30;;;;;;;8.78;24.28;100121.59;7698594;32;37603;-74
2022/03/02 17:16:11;;;;;;;17.23;9.10;;;;;;;8.17;25.24;100116.06;7696293;32;37843;-73
2022/03/02 17:20:27;;;;;;;21.15;12.80;;;;;;;8.46;25.14;100114.91;7689562;32;39445;-74
2022/03/02 17:24:45;;;;;;;31.05;16.83;;;;;;;7.93;26.38;100118.94;7704252;32;39963;-74
2022/03/02 17:29:02;;;;;;;32.58;16.42;;;;;;;8.20;26.03;100123.72;7709570;32;38019;-73
2022/03/02 17:33:18;;;;;;;22.62;12.37;;;;;;;8.30;26.25;100121.16;7696357;32;37181;-74
2022/03/02 17:37:35;;;;;;;45.35;26.20;;;;;;;8.23;26.23;100120.50;7711554;32;39190;-74
2022/03/02 17:41:51;;;;;;;25.60;12.37;;;;;;;8.04;26.14;100117.22;7712897;32;39894;-72
2022/03/02 17:46:07;;;;;;;20.75;10.95;;;;;;;7.84;25.30;100113.09;7712050;32;38802;-72
2022/03/02 17:50:23;;;;;;;23.50;11.05;;;;;;;7.77;24.75;100120.56;7712415;32;38022;-72
2022/03/02 17:54:40;;;;;;;23.05;11.73;;;;;;;7.71;24.84;100119.66;7711721;32;39985;-73
2022/03/02 17:59:00;;;;;;;20.05;10.95;;;;;;;7.23;25.52;100122.84;7711046;32;40016;-73
2022/03/02 18:03:17;;;;;;;22.55;12.05;;;;;;;7.46;25.58;100128.16;7711537;32;37728;-73
2022/03/02 18:07:33;;;;;;;25.40;13.05;;;;;;;7.43;25.59;100127.81;7711247;32;37281;-73
2022/03/02 18:11:51;;;;;;;22.58;12.18;;;;;;;7.09;26.57;100127.72;7711502;32;39315;-73
2022/03/02 18:16:08;;;;;;;19.95;11.20;;;;;;;6.96;26.65;100129.63;7709363;32;40781;-73
2022/03/02 18:20:25;;;;;;;20.70;10.70;;;;;;;6.95;26.70;100119.88;7706622;32;37809;-73
2022/03/02 18:24:41;;;;;;;18.15;10.35;;;;;;;6.80;26.33;100113.31;7710575;32;36889;-73
2022/03/02 18:28:58;;;;;;;24.95;10.88;;;;;;;6.94;25.80;100114.69;7710013;32;40139;-73
2022/03/02 18:33:15;;;;;;;20.62;10.15;;;;;;;6.60;26.86;100119.91;7710844;32;39601;-73
2022/03/02 18:37:32;;;;;;;23.15;10.63;;;;;;;6.73;26.74;100125.09;7711046;32;38912;-73
2022/03/02 18:41:49;;;;;;;21.00;10.98;;;;;;;6.76;26.84;100113.78;7696166;32;38030;-72
2022/03/02 18:46:08;;;;;;;20.73;10.85;;;;;;;6.66;27.18;100108.16;7697122;32;39277;-71
2022/03/02 18:50:26;;;;;;;20.05;10.75;;;;;;;6.57;27.32;100106.84;7695179;32;40014;-72
2022/03/02 18:54:43;;;;;;;18.92;10.10;;;;;;;6.55;27.09;100111.69;7709088;32;36890;-72
2022/03/02 18:59:05;;;;;;;17.67;10.05;;;;;;;6.43;27.23;100102.75;7709350;32;37392;-73
2022/03/02 19:03:21;;;;;;;20.50;9.43;;;;;;;6.26;27.74;100097.22;7710938;32;38337;-73
2022/03/02 19:07:39;;;;;;;17.33;8.82;;;;;;;6.22;27.45;100101.47;7710762;32;40803;-73
2022/03/02 19:11:57;;;;;;;17.80;9.88;;;;;;;6.35;27.31;100093.91;7709766;32;38628;-73
2022/03/02 19:16:13;;;;;;;16.62;9.57;;;;;;;6.18;27.80;100087.56;7710740;32;37040;-72
2022/03/02 19:20:29;;;;;;;19.90;10.35;;;;;;;6.18;27.97;100090.28;7709993;32;39491;-73
2022/03/02 19:24:49;;;;;;;20.00;10.02;;;;;;;6.22;27.55;100085.22;7693378;32;40161;-73
2022/03/02 19:29:07;;;;;;;18.08;9.80;;;;;;;6.08;27.65;100092.75;7694516;32;38682;-73
2022/03/02 19:33:23;;;;;;;23.05;9.73;;;;;;;5.72;28.04;100092.66;7709450;32;36804;-72
2022/03/02 19:37:40;;;;;;;17.40;9.85;;;;;;;5.98;28.30;100091.44;7709989;32;38993;-72
2022/03/02 19:41:59;;;;;;;16.92;9.27;;;;;;;5.78;28.78;100083.63;7708667;32;39998;-73
2022/03/02 19:46:16;;;;;;;17.17;9.27;;;;;;;5.48;28.99;100086.38;7710200;32;37651;-72
2022/03/02 19:50:34;;;;;;;20.00;10.07;;;;;;;5.62;28.34;100087.00;7710822;32;36952;-72
2022/03/02 19:54:51;;;;;;;19.62;10.20;;;;;;;5.54;29.21;100087.34;7709596;32;38489;-71
2022/03/02 19:59:08;;;;;;;18.25;9.05;;;;;;;5.39;29.33;100085.06;7670438;32;39889;-73